createdAt,value
2023-11-22T00:02:10.091Z,4.13
2023-11-22T00:04:38.250Z,4.12
2023-11-22T00:07:06.383Z,4.12
2023-11-22T00:09:34.598Z,4.11
2023-11-22T00:12:03.865Z,4.10
2023-11-22T00:14:32.156Z,4.10
2023-11-22T00:17:03.078Z,4.12
2023-11-22T00:19:31.789Z,4.13
2023-11-22T00:21:59.897Z,4.13
2023-11-22T00:24:28.124Z,4.11
2023-11-22T00:26:56.198Z,4.05
2023-11-22T00:29:24.424Z,4.02
2023-11-22T00:31:52.586Z,3.98
2023-11-22T00:34:21.457Z,3.97
2023-11-22T00:36:50.246Z,3.98
2023-11-22T00:39:19.823Z,3.97
2023-11-22T00:41:48.269Z,3.95
2023-11-22T00:44:16.487Z,3.90
2023-11-22T00:46:46.976Z,3.88
2023-11-22T00:49:15.270Z,3.86
2023-11-22T00:51:43.471Z,3.82
2023-11-22T00:54:11.656Z,3.77
2023-11-22T00:56:41.190Z,3.69
2023-11-22T00:59:09.833Z,3.66
2023-11-22T01:01:38.051Z,3.66
2023-11-22T01:04:08.287Z,3.64
2023-11-22T01:06:37.991Z,3.63
2023-11-22T01:09:06.551Z,3.61
2023-11-22T01:11:34.628Z,3.57
2023-11-22T01:14:03.345Z,3.53
2023-11-22T01:16:31.613Z,3.49
2023-11-22T01:18:59.893Z,3.49
2023-11-22T01:21:28.114Z,3.51
2023-11-22T01:23:56.589Z,3.56
2023-11-22T01:26:25.102Z,3.50
2023-11-22T01:28:53.417Z,3.43
2023-11-22T01:31:22.569Z,3.42
2023-11-22T01:33:50.842Z,3.39
2023-11-22T01:36:18.948Z,3.37
2023-11-22T01:38:47.647Z,3.37
2023-11-22T01:41:15.755Z,3.41
2023-11-22T01:43:43.954Z,3.45
2023-11-22T01:46:26.675Z,3.48
2023-11-22T01:48:55.854Z,3.51
2023-11-22T01:51:25.868Z,3.54
2023-11-22T01:53:57.982Z,3.57
2023-11-22T01:56:28.565Z,3.60
2023-11-22T01:58:59.175Z,3.61
2023-11-22T02:01:28.557Z,3.58
2023-11-22T02:03:56.847Z,3.56
2023-11-22T02:06:25.987Z,3.54
2023-11-22T02:08:54.099Z,3.53
2023-11-22T02:11:23.641Z,3.50
2023-11-22T02:13:52.585Z,3.49
2023-11-22T02:16:21.685Z,3.47
2023-11-22T02:18:50.441Z,3.48
2023-11-22T02:21:18.822Z,3.47
2023-11-22T02:23:47.826Z,3.50
2023-11-22T02:26:19.271Z,3.51
2023-11-22T02:28:48.403Z,3.49
2023-11-22T02:31:16.588Z,3.47
2023-11-22T02:33:46.498Z,3.47
2023-11-22T02:36:14.699Z,3.48
2023-11-22T02:38:45.378Z,3.46
2023-11-22T02:41:14.857Z,3.44
2023-11-22T02:43:43.153Z,3.41
2023-11-22T02:46:11.326Z,3.34
2023-11-22T02:48:40.173Z,3.32
2023-11-22T02:51:08.785Z,3.33
2023-11-22T02:53:37.025Z,3.33
2023-11-22T02:56:06.401Z,3.35
2023-11-22T02:58:34.762Z,3.36
2023-11-22T03:01:03.029Z,3.38
2023-11-22T03:03:31.339Z,3.44
2023-11-22T03:05:59.552Z,3.47
2023-11-22T03:08:28.392Z,3.47
2023-11-22T03:10:56.608Z,3.49
2023-11-22T03:13:24.781Z,3.47
2023-11-22T03:15:53.301Z,3.44
2023-11-22T03:18:22.818Z,3.40
2023-11-22T03:20:55.621Z,3.37
2023-11-22T03:23:24.128Z,3.40
2023-11-22T03:25:52.437Z,3.40
2023-11-22T03:28:20.576Z,3.40
2023-11-22T03:30:48.754Z,3.40
2023-11-22T03:33:17.595Z,3.36
2023-11-22T03:35:45.917Z,3.37
2023-11-22T03:38:14.375Z,3.41
2023-11-22T03:40:42.649Z,3.42
2023-11-22T03:43:11.648Z,3.43
2023-11-22T03:45:39.934Z,3.43
2023-11-22T03:48:08.246Z,3.42
2023-11-22T03:50:36.930Z,3.43
2023-11-22T03:53:05.467Z,3.48
2023-11-22T03:55:33.571Z,3.54
2023-11-22T03:58:02.464Z,3.61
2023-11-22T04:00:30.761Z,3.68
2023-11-22T04:03:01.412Z,3.71
2023-11-22T04:05:30.160Z,3.68
2023-11-22T04:07:58.405Z,3.69
2023-11-22T04:10:26.657Z,3.74
2023-11-22T04:12:54.839Z,3.83
2023-11-22T04:15:23.151Z,3.87
2023-11-22T04:17:51.754Z,3.90
2023-11-22T04:20:20.528Z,3.94
2023-11-22T04:22:48.915Z,4.02
2023-11-22T04:25:17.079Z,4.08
2023-11-22T04:27:45.228Z,4.14
2023-11-22T04:30:15.567Z,4.20
2023-11-22T04:32:45.670Z,4.27
2023-11-22T04:35:14.664Z,4.34
2023-11-22T04:37:44.297Z,4.37
2023-11-22T04:40:12.921Z,4.40
2023-11-22T04:42:41.400Z,4.39
2023-11-22T04:45:11.111Z,4.42
2023-11-22T04:47:39.683Z,4.43
2023-11-22T04:50:08.366Z,4.47
2023-11-22T04:52:36.656Z,4.49
2023-11-22T04:55:05.908Z,4.50
2023-11-22T04:57:34.695Z,4.49
2023-11-22T05:00:06.066Z,4.50
2023-11-22T05:02:34.482Z,4.52
2023-11-22T05:05:02.854Z,4.55
2023-11-22T05:07:30.989Z,4.57
2023-11-22T05:09:59.494Z,4.60
2023-11-22T05:12:27.837Z,4.65
2023-11-22T05:14:55.953Z,4.69
2023-11-22T05:17:24.479Z,4.67
2023-11-22T05:19:52.620Z,4.64
2023-11-22T05:22:20.858Z,4.63
2023-11-22T05:24:48.996Z,4.61
2023-11-22T05:27:17.991Z,4.61
2023-11-22T05:29:52.857Z,4.62
2023-11-22T05:32:23.780Z,4.65
2023-11-22T05:34:52.234Z,4.68
2023-11-22T05:37:22.173Z,4.69
2023-11-22T05:39:50.506Z,4.71
2023-11-22T05:42:19.367Z,4.73
2023-11-22T05:44:48.309Z,4.72
2023-11-22T05:47:19.923Z,4.75
2023-11-22T05:49:49.697Z,4.81
2023-11-22T05:52:21.821Z,4.89
2023-11-22T05:54:50.695Z,4.96
2023-11-22T05:57:21.527Z,5.00
2023-11-22T05:59:53.302Z,5.03
2023-11-22T06:02:23.764Z,5.04
2023-11-22T06:04:55.510Z,5.05
2023-11-22T06:07:26.204Z,5.05
2023-11-22T06:09:54.520Z,5.06
2023-11-22T06:12:26.399Z,5.06
2023-11-22T06:15:02.933Z,5.04
2023-11-22T06:17:36.581Z,5.04
2023-11-22T06:20:06.904Z,5.09
2023-11-22T06:22:38.800Z,5.16
2023-11-22T06:25:07.788Z,5.24
2023-11-22T06:27:36.844Z,5.31
2023-11-22T06:30:10.615Z,5.38
2023-11-22T06:32:39.043Z,5.43
2023-11-22T06:35:10.223Z,5.48
2023-11-22T06:37:38.988Z,5.50
2023-11-22T06:40:09.330Z,5.53
2023-11-22T06:42:37.950Z,5.56
2023-11-22T06:45:11.228Z,5.58
2023-11-22T06:47:40.674Z,5.63
2023-11-22T06:50:13.559Z,5.68
2023-11-22T06:52:42.632Z,5.72
2023-11-22T06:55:11.568Z,5.74
2023-11-22T06:57:40.444Z,5.80
2023-11-22T07:00:10.847Z,5.81
2023-11-22T07:02:39.590Z,5.84
2023-11-22T07:05:10.523Z,5.86
2023-11-22T07:07:41.665Z,5.84
2023-11-22T07:10:12.905Z,5.78
2023-11-22T07:12:41.328Z,5.79
2023-11-22T07:15:16.362Z,5.76
2023-11-22T07:17:44.556Z,5.78
2023-11-22T07:20:17.707Z,5.85
2023-11-22T07:22:47.417Z,5.92
2023-11-22T07:25:21.887Z,6.00
2023-11-22T07:27:50.241Z,6.08
2023-11-22T07:30:21.299Z,6.17
2023-11-22T07:32:53.334Z,6.25
2023-11-22T07:35:22.105Z,6.26
2023-11-22T07:37:53.096Z,6.26
2023-11-22T07:40:24.387Z,6.32
2023-11-22T07:42:52.595Z,6.40
2023-11-22T07:45:20.738Z,6.44
2023-11-22T07:47:49.850Z,6.54
2023-11-22T07:50:23.340Z,6.64
2023-11-22T07:53:10.342Z,6.77
2023-11-22T07:55:43.282Z,6.85
2023-11-22T07:58:12.241Z,6.95
2023-11-22T08:00:50.953Z,7.08
2023-11-22T08:03:19.920Z,7.23
2023-11-22T08:06:03.155Z,7.38
2023-11-22T08:08:48.205Z,7.52
2023-11-22T08:11:22.347Z,7.65
2023-11-22T08:17:19.291Z,7.81
2023-11-22T08:19:51.886Z,7.85
2023-11-22T08:22:20.140Z,7.88
2023-11-22T08:24:48.981Z,7.92
2023-11-22T08:27:18.265Z,7.94
2023-11-22T08:29:50.792Z,7.99
2023-11-22T08:32:29.224Z,7.98
2023-11-22T08:34:58.814Z,7.98
2023-11-22T08:37:28.338Z,8.01
2023-11-22T08:39:56.430Z,8.06
2023-11-22T08:42:24.835Z,8.12
2023-11-22T08:44:53.169Z,8.24
2023-11-22T08:47:21.498Z,8.31
2023-11-22T08:49:49.761Z,8.38
2023-11-22T08:52:19.011Z,8.42
2023-11-22T08:54:49.017Z,8.43
2023-11-22T08:57:18.217Z,8.51
2023-11-22T08:59:46.579Z,8.54
2023-11-22T09:02:16.326Z,8.59
2023-11-22T09:04:44.969Z,8.64
2023-11-22T09:07:18.918Z,8.70
2023-11-22T09:09:49.572Z,8.73
2023-11-22T09:12:21.182Z,8.83
2023-11-22T09:14:49.750Z,8.82
2023-11-22T09:17:22.010Z,8.83
2023-11-22T09:20:38.121Z,8.88
2023-11-22T09:23:30.229Z,9.01
2023-11-22T09:26:02.467Z,9.11
2023-11-22T09:28:36.409Z,9.13
2023-11-22T09:31:20.427Z,9.21
2023-11-22T09:33:53.759Z,9.29
2023-11-22T09:36:23.452Z,9.30
2023-11-22T09:38:53.577Z,9.38
2023-11-22T09:41:23.014Z,9.45
2023-11-22T09:43:56.772Z,9.42
2023-11-22T09:46:27.913Z,9.45
2023-11-22T09:49:23.447Z,9.56
2023-11-22T09:51:57.357Z,9.65
2023-11-22T09:57:39.609Z,9.65
2023-11-22T10:00:19.801Z,9.64
2023-11-22T10:02:49.542Z,9.70
2023-11-22T10:05:22.002Z,9.65
2023-11-22T10:07:55.185Z,9.55
2023-11-22T10:10:24.504Z,9.53
2023-11-22T10:12:57.316Z,9.60
2023-11-22T10:15:29.218Z,9.72
2023-11-22T10:18:04.186Z,9.77
2023-11-22T10:20:44.071Z,9.93
2023-11-22T10:23:21.173Z,10.25
2023-11-22T10:25:54.495Z,10.36
2023-11-22T10:28:27.436Z,10.39
2023-11-22T10:30:56.060Z,10.32
2023-11-22T10:33:29.861Z,10.29
2023-11-22T10:36:05.486Z,10.22
2023-11-22T10:38:38.752Z,10.15
2023-11-22T10:41:10.008Z,10.07
2023-11-22T10:43:40.558Z,10.04
2023-11-22T10:46:12.793Z,9.99
2023-11-22T10:48:43.017Z,10.05
2023-11-22T10:51:15.769Z,10.02
2023-11-22T10:53:50.651Z,9.96
2023-11-22T10:56:22.392Z,9.95
2023-11-22T11:01:27.756Z,10.07
2023-11-22T11:04:13.134Z,10.13
2023-11-22T11:06:47.453Z,10.20
2023-11-22T11:09:18.029Z,10.29
2023-11-22T11:11:46.443Z,10.37
2023-11-22T11:14:16.688Z,10.40
2023-11-22T11:16:51.180Z,10.51
2023-11-22T11:19:19.805Z,10.72
2023-11-22T11:21:49.342Z,11.00
2023-11-22T11:24:19.541Z,11.23
2023-11-22T11:26:54.708Z,11.39
2023-11-22T11:29:33.443Z,11.48
2023-11-22T11:32:04.223Z,11.56
2023-11-22T11:34:32.484Z,11.58
2023-11-22T11:37:01.993Z,11.67
2023-11-22T11:39:31.908Z,12.30
2023-11-22T11:42:17.256Z,12.74
2023-11-22T11:45:08.535Z,12.61
2023-11-22T11:47:37.254Z,12.20
2023-11-22T11:50:06.651Z,12.15
2023-11-22T11:52:40.346Z,11.88
2023-11-22T11:55:08.958Z,11.49
2023-11-22T11:57:38.480Z,11.19
2023-11-22T12:00:07.708Z,10.92
2023-11-22T12:02:42.759Z,10.66
2023-11-22T12:05:11.107Z,10.44
2023-11-22T12:07:39.433Z,10.26
2023-11-22T12:10:08.079Z,10.19
2023-11-22T12:12:36.389Z,10.13
2023-11-22T12:15:06.017Z,9.94
2023-11-22T12:17:35.385Z,9.77
2023-11-22T12:20:17.669Z,9.58
2023-11-22T12:22:47.606Z,9.45
2023-11-22T12:25:16.117Z,9.33
2023-11-22T12:27:47.302Z,9.09
2023-11-22T12:30:35.606Z,8.87
2023-11-22T12:33:14.439Z,8.75
2023-11-22T12:35:45.558Z,8.61
2023-11-22T12:38:17.894Z,8.62
2023-11-22T12:40:50.383Z,8.60
2023-11-22T12:43:18.809Z,8.52
2023-11-22T12:45:47.937Z,8.35
2023-11-22T12:48:25.200Z,8.26
2023-11-22T12:50:55.390Z,8.27
2023-11-22T12:53:26.539Z,8.28
2023-11-22T12:55:59.075Z,8.30
2023-11-22T12:58:27.751Z,8.23
2023-11-22T13:01:02.032Z,8.20
2023-11-22T13:03:33.679Z,8.09
2023-11-22T13:06:04.861Z,7.93
2023-11-22T13:08:34.255Z,7.81
2023-11-22T13:11:02.736Z,7.77
2023-11-22T13:13:32.448Z,7.60
2023-11-22T13:16:01.353Z,7.50
2023-11-22T13:18:29.742Z,7.44
2023-11-22T13:20:58.250Z,7.44
2023-11-22T13:23:26.494Z,7.33
2023-11-22T13:25:54.986Z,7.28
2023-11-22T13:28:25.443Z,7.22
2023-11-22T13:30:53.590Z,7.15
2023-11-22T13:33:21.755Z,7.11
2023-11-22T13:35:50.244Z,7.06
2023-11-22T13:38:19.722Z,7.02
2023-11-22T13:40:48.004Z,6.96
2023-11-22T13:43:18.447Z,6.93
2023-11-22T13:45:46.942Z,6.89
2023-11-22T13:48:15.501Z,6.86
2023-11-22T13:50:43.920Z,6.81
2023-11-22T13:53:12.798Z,6.74
2023-11-22T13:55:41.262Z,6.62
2023-11-22T13:58:10.367Z,6.52
2023-11-22T14:00:40.150Z,6.44
2023-11-22T14:03:09.314Z,6.28
2023-11-22T14:05:40.172Z,6.12
2023-11-22T14:08:09.034Z,5.99
2023-11-22T14:10:37.634Z,5.84
2023-11-22T14:13:07.383Z,5.67
2023-11-22T14:15:36.657Z,5.51
2023-11-22T14:18:05.688Z,5.41
2023-11-22T14:20:36.165Z,5.38
2023-11-22T14:23:04.889Z,5.32
2023-11-22T14:25:33.194Z,5.24
2023-11-22T14:28:01.429Z,5.17
2023-11-22T14:30:31.963Z,5.15
2023-11-22T14:33:01.106Z,5.15
2023-11-22T14:35:29.571Z,5.12
2023-11-22T14:37:59.967Z,5.13
2023-11-22T14:40:28.678Z,5.15
2023-11-22T14:42:58.027Z,5.17
2023-11-22T14:45:28.379Z,5.19
2023-11-22T14:47:58.035Z,5.17
2023-11-22T14:50:29.824Z,5.18
2023-11-22T14:52:58.083Z,5.20
2023-11-22T14:55:27.598Z,5.24
2023-11-22T14:57:58.818Z,5.28
2023-11-22T15:00:27.625Z,5.31
2023-11-22T15:02:57.840Z,5.35
2023-11-22T15:05:27.550Z,5.32
2023-11-22T15:07:56.592Z,5.32
2023-11-22T15:10:26.971Z,5.32
2023-11-22T15:12:56.804Z,5.30
2023-11-22T15:15:27.241Z,5.31
2023-11-22T15:17:56.265Z,5.32
2023-11-22T15:20:24.916Z,5.33
2023-11-22T15:22:53.528Z,5.36
2023-11-22T15:25:21.809Z,5.39
2023-11-22T15:27:49.981Z,5.43
2023-11-22T15:30:20.449Z,5.48
2023-11-22T15:32:49.684Z,5.52
2023-11-22T15:35:19.148Z,5.52
2023-11-22T15:37:47.783Z,5.49
2023-11-22T15:40:18.738Z,5.47
2023-11-22T15:42:47.373Z,5.48
2023-11-22T15:45:15.387Z,5.47
2023-11-22T15:47:46.742Z,5.49
2023-11-22T15:50:17.859Z,5.51
2023-11-22T15:52:47.142Z,5.51
2023-11-22T15:55:15.301Z,5.50
2023-11-22T15:57:43.551Z,5.54
2023-11-22T16:00:13.980Z,5.59
2023-11-22T16:02:42.680Z,5.61
2023-11-22T16:05:13.603Z,5.61
2023-11-22T16:07:43.254Z,5.63
2023-11-22T16:10:12.453Z,5.68
2023-11-22T16:12:40.669Z,5.70
2023-11-22T16:15:09.871Z,5.70
2023-11-22T16:17:38.362Z,5.72
2023-11-22T16:20:12.520Z,5.75
2023-11-22T16:22:46.048Z,5.78
2023-11-22T16:25:15.679Z,5.82
2023-11-22T16:27:43.903Z,5.83
2023-11-22T16:30:12.631Z,5.85
2023-11-22T16:32:41.622Z,5.86
2023-11-22T16:35:13.705Z,5.86
2023-11-22T16:37:43.624Z,5.86
2023-11-22T16:40:11.853Z,5.85
2023-11-22T16:42:39.999Z,5.80
2023-11-22T16:45:09.114Z,5.78
2023-11-22T16:47:38.164Z,5.78
2023-11-22T16:50:08.666Z,5.80
2023-11-22T16:52:36.844Z,5.83
2023-11-22T16:55:05.809Z,5.85
2023-11-22T16:57:34.320Z,5.88
2023-11-22T17:00:06.413Z,5.91
2023-11-22T17:02:34.580Z,5.89
2023-11-22T17:05:04.289Z,5.89
2023-11-22T17:07:34.073Z,5.83
2023-11-22T17:10:02.178Z,5.75
2023-11-22T17:12:30.499Z,5.75
2023-11-22T17:14:58.647Z,5.74
2023-11-22T17:17:29.745Z,5.72
2023-11-22T17:19:58.080Z,5.70
2023-11-22T17:22:28.673Z,5.69
2023-11-22T17:24:58.815Z,5.70
2023-11-22T17:27:27.408Z,5.71
2023-11-22T17:29:55.772Z,5.70
2023-11-22T17:32:24.454Z,5.69
2023-11-22T17:34:53.692Z,5.65
2023-11-22T17:37:21.882Z,5.56
2023-11-22T17:39:52.842Z,5.48
2023-11-22T17:42:21.097Z,5.44
2023-11-22T17:44:52.969Z,5.44
2023-11-22T17:47:21.350Z,5.44
2023-11-22T17:49:52.434Z,5.46
2023-11-22T17:52:20.587Z,5.48
2023-11-22T17:54:48.806Z,5.51
2023-11-22T17:57:18.039Z,5.49
2023-11-22T17:59:46.193Z,5.48
2023-11-22T18:02:16.357Z,5.49
2023-11-22T18:04:44.770Z,5.45
2023-11-22T18:07:16.079Z,5.35
2023-11-22T18:09:47.209Z,5.34
2023-11-22T18:12:16.782Z,5.26
2023-11-22T18:14:48.221Z,5.21
2023-11-22T18:17:16.534Z,5.17
2023-11-22T18:19:47.077Z,5.16
2023-11-22T18:22:15.195Z,5.15
2023-11-22T18:24:43.276Z,5.13
2023-11-22T18:27:11.422Z,5.10
2023-11-22T18:29:39.626Z,5.08
2023-11-22T18:32:09.857Z,4.97
2023-11-22T18:34:38.626Z,4.90
2023-11-22T18:37:07.624Z,4.80
2023-11-22T18:39:35.752Z,4.70
2023-11-22T18:42:04.575Z,4.64
2023-11-22T18:44:37.564Z,4.61
2023-11-22T18:47:06.430Z,4.61
2023-11-22T18:49:34.981Z,4.58
2023-11-22T18:52:04.048Z,4.60
2023-11-22T18:54:32.133Z,4.65
2023-11-22T18:57:01.664Z,4.68
2023-11-22T18:59:29.896Z,4.72
2023-11-22T19:02:00.394Z,4.77
2023-11-22T19:04:28.796Z,4.77
2023-11-22T19:06:56.899Z,4.74
2023-11-22T19:09:25.114Z,4.67
2023-11-22T19:11:53.446Z,4.62
2023-11-22T19:14:22.848Z,4.62
2023-11-22T19:16:50.998Z,4.66
2023-11-22T19:19:21.666Z,4.68
2023-11-22T19:21:49.833Z,4.69
2023-11-22T19:24:18.021Z,4.71
2023-11-22T19:26:47.226Z,4.71
2023-11-22T19:29:15.250Z,4.72
2023-11-22T19:31:44.920Z,4.72
2023-11-22T19:34:15.954Z,4.72
2023-11-22T19:36:47.251Z,4.69
2023-11-22T19:39:17.799Z,4.66
2023-11-22T19:41:46.018Z,4.61
2023-11-22T19:44:15.722Z,4.52
2023-11-22T19:46:44.020Z,4.42
2023-11-22T19:49:13.746Z,4.34
2023-11-22T19:51:43.162Z,4.27
2023-11-22T19:54:12.259Z,4.26
2023-11-22T19:56:41.713Z,4.28
2023-11-22T19:59:09.846Z,4.30
2023-11-22T20:01:43.619Z,4.25
2023-11-22T20:04:12.859Z,4.22
2023-11-22T20:06:46.397Z,4.19
2023-11-22T20:09:15.016Z,4.17
2023-11-22T20:11:43.073Z,4.20
2023-11-22T20:14:11.491Z,4.23
2023-11-22T20:16:39.765Z,4.21
2023-11-22T20:19:08.181Z,4.23
2023-11-22T20:21:43.404Z,4.23
2023-11-22T20:24:11.739Z,4.20
2023-11-22T20:26:39.941Z,4.18
2023-11-22T20:29:08.231Z,4.13
2023-11-22T20:31:36.452Z,4.06
2023-11-22T20:34:04.884Z,4.07
2023-11-22T20:36:33.282Z,4.09
2023-11-22T20:39:01.336Z,4.10
2023-11-22T20:41:29.890Z,4.08
2023-11-22T20:44:00.215Z,4.09
2023-11-22T20:46:28.587Z,4.05
2023-11-22T20:48:56.724Z,4.03
2023-11-22T20:51:24.889Z,4.02
2023-11-22T20:53:53.166Z,3.99
2023-11-22T20:56:21.321Z,3.98
2023-11-22T20:58:49.515Z,3.97
2023-11-22T21:01:17.734Z,3.99
2023-11-22T21:03:46.044Z,3.99
2023-11-22T21:06:17.767Z,3.94
2023-11-22T21:08:48.895Z,3.89
2023-11-22T21:11:17.658Z,3.89
2023-11-22T21:13:46.234Z,3.88
2023-11-22T21:16:14.351Z,3.89
2023-11-22T21:18:42.757Z,3.87
2023-11-22T21:21:14.581Z,3.79
2023-11-22T21:23:43.459Z,3.78
2023-11-22T21:26:13.585Z,3.74
2023-11-22T21:28:43.136Z,3.72
2023-11-22T21:31:19.874Z,3.72
2023-11-22T21:33:49.516Z,3.68
2023-11-22T21:36:18.725Z,3.69
2023-11-22T21:38:47.205Z,3.69
2023-11-22T21:41:15.709Z,3.75
2023-11-22T21:43:44.403Z,3.79
2023-11-22T21:46:19.883Z,3.80
2023-11-22T21:48:48.164Z,3.78
2023-11-22T21:51:16.609Z,3.76
2023-11-22T21:53:44.808Z,3.69
2023-11-22T21:56:12.960Z,3.64
2023-11-22T21:58:41.160Z,3.58
2023-11-22T22:01:12.140Z,3.57
2023-11-22T22:03:42.267Z,3.53
2023-11-22T22:06:11.109Z,3.52
2023-11-22T22:08:42.691Z,3.49
2023-11-22T22:11:11.160Z,3.47
2023-11-22T22:13:39.329Z,3.44
2023-11-22T22:16:07.906Z,3.44
2023-11-22T22:18:38.177Z,3.43
2023-11-22T22:21:06.789Z,3.44
2023-11-22T22:23:35.983Z,3.43
2023-11-22T22:26:05.488Z,3.40
2023-11-22T22:28:33.847Z,3.33
2023-11-22T22:31:02.384Z,3.29
2023-11-22T22:33:30.586Z,3.21
2023-11-22T22:35:59.197Z,3.15
2023-11-22T22:38:27.264Z,3.04
2023-11-22T22:40:55.463Z,3.02
2023-11-22T22:43:23.587Z,3.04
2023-11-22T22:45:52.279Z,3.00
2023-11-22T22:48:21.144Z,2.94
2023-11-22T22:50:49.712Z,2.89
2023-11-22T22:53:18.365Z,2.90
2023-11-22T22:55:46.678Z,2.94
2023-11-22T22:58:14.921Z,3.01
2023-11-22T23:00:43.213Z,3.04
2023-11-22T23:03:13.259Z,3.05
2023-11-22T23:05:42.011Z,3.10
2023-11-22T23:08:10.810Z,3.14
2023-11-22T23:10:39.616Z,3.13
2023-11-22T23:13:08.456Z,3.16
2023-11-22T23:15:38.122Z,3.19
2023-11-22T23:18:07.688Z,3.15
2023-11-22T23:20:46.317Z,3.13
2023-11-22T23:23:18.937Z,3.13
2023-11-22T23:25:48.030Z,3.10
2023-11-22T23:28:16.490Z,3.06
2023-11-22T23:30:44.666Z,3.04
2023-11-22T23:33:13.032Z,3.02
2023-11-22T23:35:44.065Z,2.95
2023-11-22T23:38:12.163Z,2.88
2023-11-22T23:40:40.322Z,2.87
2023-11-22T23:43:09.452Z,2.92
2023-11-22T23:45:38.748Z,2.90
2023-11-22T23:48:07.245Z,2.78
2023-11-22T23:50:35.661Z,2.67
2023-11-22T23:53:03.877Z,2.70
2023-11-22T23:55:31.960Z,2.78
2023-11-22T23:57:59.993Z,2.83
